sensor_id;sensor_type;location;lat;lon;timestamp;P1;durP1;ratioP1;P2;durP2;ratioP2
21168;SDS011;10742;51.816;8.662;2023-08-24T00:00:53;1924.60;;;436.90;;
21168;SDS011;10742;51.816;8.662;2023-08-24T00:03:56;1520.17;;;365.30;;
21168;SDS011;10742;51.816;8.662;2023-08-24T00:06:59;1834.30;;;424.97;;
21168;SDS011;10742;51.816;8.662;2023-08-24T00:10:02;1206.00;;;328.30;;
21168;SDS011;10742;51.816;8.662;2023-08-24T00:13:06;1446.17;;;359.60;;
21168;SDS011;10742;51.816;8.662;2023-08-24T00:16:09;1510.07;;;372.70;;
21168;SDS011;10742;51.816;8.662;2023-08-24T00:19:12;1423.07;;;363.37;;
21168;SDS011;10742;51.816;8.662;2023-08-24T00:22:14;1233.70;;;320.80;;
21168;SDS011;10742;51.816;8.662;2023-08-24T00:25:17;1565.30;;;387.07;;
21168;SDS011;10742;51.816;8.662;2023-08-24T00:28:20;1177.47;;;318.03;;
21168;SDS011;10742;51.816;8.662;2023-08-24T00:31:22;1430.10;;;368.97;;
21168;SDS011;10742;51.816;8.662;2023-08-24T00:34:25;1538.90;;;364.73;;
21168;SDS011;10742;51.816;8.662;2023-08-24T00:37:28;1477.30;;;355.87;;
21168;SDS011;10742;51.816;8.662;2023-08-24T00:40:30;1222.53;;;326.97;;
21168;SDS011;10742;51.816;8.662;2023-08-24T00:43:34;1384.93;;;361.90;;
21168;SDS011;10742;51.816;8.662;2023-08-24T00:46:37;1013.90;;;287.70;;
21168;SDS011;10742;51.816;8.662;2023-08-24T00:49:40;1053.17;;;277.87;;
21168;SDS011;10742;51.816;8.662;2023-08-24T00:52:45;944.33;;;281.13;;
21168;SDS011;10742;51.816;8.662;2023-08-24T00:55:50;923.77;;;280.90;;
21168;SDS011;10742;51.816;8.662;2023-08-24T00:58:53;1185.57;;;317.23;;
21168;SDS011;10742;51.816;8.662;2023-08-24T01:01:57;1131.17;;;306.30;;
21168;SDS011;10742;51.816;8.662;2023-08-24T01:05:01;1031.27;;;281.50;;
21168;SDS011;10742;51.816;8.662;2023-08-24T01:08:06;1892.97;;;473.83;;
21168;SDS011;10742;51.816;8.662;2023-08-24T01:11:11;1429.73;;;350.80;;
21168;SDS011;10742;51.816;8.662;2023-08-24T01:17:39;1192.87;;;302.90;;
21168;SDS011;10742;51.816;8.662;2023-08-24T01:20:44;1042.10;;;274.87;;
21168;SDS011;10742;51.816;8.662;2023-08-24T01:24:04;1442.40;;;365.50;;
21168;SDS011;10742;51.816;8.662;2023-08-24T01:27:14;973.43;;;276.13;;
21168;SDS011;10742;51.816;8.662;2023-08-24T01:30:17;1059.90;;;291.77;;
21168;SDS011;10742;51.816;8.662;2023-08-24T01:33:22;1214.50;;;316.40;;
21168;SDS011;10742;51.816;8.662;2023-08-24T01:36:27;797.77;;;228.43;;
21168;SDS011;10742;51.816;8.662;2023-08-24T01:39:31;944.77;;;259.60;;
21168;SDS011;10742;51.816;8.662;2023-08-24T01:42:56;1187.90;;;332.33;;
21168;SDS011;10742;51.816;8.662;2023-08-24T01:46:04;589.17;;;191.37;;
21168;SDS011;10742;51.816;8.662;2023-08-24T01:49:10;390.30;;;137.53;;
21168;SDS011;10742;51.816;8.662;2023-08-24T01:52:15;460.80;;;164.77;;
21168;SDS011;10742;51.816;8.662;2023-08-24T01:55:19;683.10;;;198.03;;
21168;SDS011;10742;51.816;8.662;2023-08-24T01:58:22;695.17;;;213.60;;
21168;SDS011;10742;51.816;8.662;2023-08-24T02:01:25;1080.50;;;300.17;;
21168;SDS011;10742;51.816;8.662;2023-08-24T02:04:28;1023.90;;;287.43;;
21168;SDS011;10742;51.816;8.662;2023-08-24T02:07:30;1180.97;;;324.57;;
21168;SDS011;10742;51.816;8.662;2023-08-24T02:10:33;1151.17;;;321.87;;
21168;SDS011;10742;51.816;8.662;2023-08-24T02:13:35;1379.93;;;336.13;;
21168;SDS011;10742;51.816;8.662;2023-08-24T02:16:38;1446.03;;;354.23;;
21168;SDS011;10742;51.816;8.662;2023-08-24T02:19:41;1177.57;;;316.47;;
21168;SDS011;10742;51.816;8.662;2023-08-24T02:22:44;1349.27;;;334.87;;
21168;SDS011;10742;51.816;8.662;2023-08-24T02:25:46;1460.20;;;368.13;;
21168;SDS011;10742;51.816;8.662;2023-08-24T02:28:49;1815.53;;;406.87;;
21168;SDS011;10742;51.816;8.662;2023-08-24T02:31:52;1577.70;;;396.03;;
21168;SDS011;10742;51.816;8.662;2023-08-24T02:34:55;1863.70;;;425.30;;
21168;SDS011;10742;51.816;8.662;2023-08-24T02:37:57;1787.10;;;422.47;;
21168;SDS011;10742;51.816;8.662;2023-08-24T02:41:03;1840.07;;;442.50;;
21168;SDS011;10742;51.816;8.662;2023-08-24T02:44:07;1852.20;;;430.33;;
21168;SDS011;10742;51.816;8.662;2023-08-24T02:47:11;1354.27;;;364.53;;
21168;SDS011;10742;51.816;8.662;2023-08-24T02:50:15;1494.13;;;352.63;;
21168;SDS011;10742;51.816;8.662;2023-08-24T02:53:17;1850.03;;;430.83;;
21168;SDS011;10742;51.816;8.662;2023-08-24T02:56:20;1929.33;;;444.40;;
21168;SDS011;10742;51.816;8.662;2023-08-24T02:59:22;1999.90;;;798.30;;
21168;SDS011;10742;51.816;8.662;2023-08-24T03:02:25;1942.43;;;472.03;;
21168;SDS011;10742;51.816;8.662;2023-08-24T03:05:28;1155.37;;;317.03;;
21168;SDS011;10742;51.816;8.662;2023-08-24T03:08:30;1108.47;;;305.47;;
21168;SDS011;10742;51.816;8.662;2023-08-24T03:11:35;934.63;;;270.90;;
21168;SDS011;10742;51.816;8.662;2023-08-24T03:14:37;936.93;;;260.33;;
21168;SDS011;10742;51.816;8.662;2023-08-24T03:17:40;715.87;;;224.07;;
21168;SDS011;10742;51.816;8.662;2023-08-24T03:20:46;1452.30;;;381.93;;
21168;SDS011;10742;51.816;8.662;2023-08-24T03:23:50;658.00;;;213.90;;
21168;SDS011;10742;51.816;8.662;2023-08-24T03:26:53;967.23;;;276.70;;
21168;SDS011;10742;51.816;8.662;2023-08-24T03:29:56;682.33;;;207.77;;
21168;SDS011;10742;51.816;8.662;2023-08-24T03:32:59;758.70;;;221.63;;
21168;SDS011;10742;51.816;8.662;2023-08-24T03:36:01;980.20;;;271.80;;
21168;SDS011;10742;51.816;8.662;2023-08-24T03:39:05;1033.07;;;275.77;;
21168;SDS011;10742;51.816;8.662;2023-08-24T03:42:07;1072.67;;;288.73;;
21168;SDS011;10742;51.816;8.662;2023-08-24T03:45:11;1183.37;;;296.17;;
21168;SDS011;10742;51.816;8.662;2023-08-24T03:48:13;916.93;;;260.80;;
21168;SDS011;10742;51.816;8.662;2023-08-24T03:51:16;1211.43;;;316.13;;
21168;SDS011;10742;51.816;8.662;2023-08-24T03:54:20;1336.40;;;350.60;;
21168;SDS011;10742;51.816;8.662;2023-08-24T03:57:22;1538.13;;;377.80;;
21168;SDS011;10742;51.816;8.662;2023-08-24T04:00:25;1616.30;;;383.63;;
21168;SDS011;10742;51.816;8.662;2023-08-24T04:03:28;1777.27;;;427.03;;
21168;SDS011;10742;51.816;8.662;2023-08-24T04:06:30;1999.90;;;472.97;;
21168;SDS011;10742;51.816;8.662;2023-08-24T04:09:33;1847.97;;;442.77;;
21168;SDS011;10742;51.816;8.662;2023-08-24T04:12:36;1709.70;;;406.73;;
21168;SDS011;10742;51.816;8.662;2023-08-24T04:15:38;1889.73;;;436.87;;
21168;SDS011;10742;51.816;8.662;2023-08-24T04:18:41;1999.90;;;508.27;;
21168;SDS011;10742;51.816;8.662;2023-08-24T04:21:43;1962.67;;;475.53;;
21168;SDS011;10742;51.816;8.662;2023-08-24T04:24:46;1999.90;;;518.40;;
21168;SDS011;10742;51.816;8.662;2023-08-24T04:27:49;1931.70;;;475.20;;
21168;SDS011;10742;51.816;8.662;2023-08-24T04:30:55;1999.90;;;501.37;;
21168;SDS011;10742;51.816;8.662;2023-08-24T04:33:59;1917.87;;;449.33;;
21168;SDS011;10742;51.816;8.662;2023-08-24T04:37:01;1744.80;;;413.37;;
21168;SDS011;10742;51.816;8.662;2023-08-24T04:40:05;1910.93;;;435.90;;
21168;SDS011;10742;51.816;8.662;2023-08-24T04:43:09;1999.90;;;531.73;;
21168;SDS011;10742;51.816;8.662;2023-08-24T04:46:11;1999.90;;;564.30;;
21168;SDS011;10742;51.816;8.662;2023-08-24T04:49:14;1999.90;;;708.93;;
21168;SDS011;10742;51.816;8.662;2023-08-24T04:52:16;1999.90;;;599.07;;
21168;SDS011;10742;51.816;8.662;2023-08-24T04:55:19;1995.03;;;493.87;;
21168;SDS011;10742;51.816;8.662;2023-08-24T04:58:21;1921.37;;;439.83;;
21168;SDS011;10742;51.816;8.662;2023-08-24T05:01:25;1999.90;;;517.90;;
21168;SDS011;10742;51.816;8.662;2023-08-24T05:04:28;1999.90;;;500.90;;
21168;SDS011;10742;51.816;8.662;2023-08-24T05:07:32;1999.90;;;549.20;;
21168;SDS011;10742;51.816;8.662;2023-08-24T05:10:34;1999.90;;;542.63;;
21168;SDS011;10742;51.816;8.662;2023-08-24T05:13:37;1999.90;;;546.50;;
21168;SDS011;10742;51.816;8.662;2023-08-24T05:16:39;1999.90;;;608.43;;
21168;SDS011;10742;51.816;8.662;2023-08-24T05:19:42;1999.90;;;588.23;;
21168;SDS011;10742;51.816;8.662;2023-08-24T05:22:45;1999.90;;;565.07;;
21168;SDS011;10742;51.816;8.662;2023-08-24T05:25:47;1999.90;;;499.63;;
21168;SDS011;10742;51.816;8.662;2023-08-24T05:28:50;1999.90;;;554.43;;
21168;SDS011;10742;51.816;8.662;2023-08-24T05:31:54;1999.90;;;636.83;;
21168;SDS011;10742;51.816;8.662;2023-08-24T05:34:56;1999.90;;;724.23;;
21168;SDS011;10742;51.816;8.662;2023-08-24T05:37:59;1999.90;;;662.37;;
21168;SDS011;10742;51.816;8.662;2023-08-24T05:41:01;1999.90;;;822.37;;
21168;SDS011;10742;51.816;8.662;2023-08-24T05:44:04;1999.90;;;863.87;;
21168;SDS011;10742;51.816;8.662;2023-08-24T05:47:07;1999.90;;;904.90;;
21168;SDS011;10742;51.816;8.662;2023-08-24T05:50:09;1999.90;;;984.37;;
21168;SDS011;10742;51.816;8.662;2023-08-24T05:53:13;1999.90;;;989.83;;
21168;SDS011;10742;51.816;8.662;2023-08-24T05:56:16;1999.90;;;999.90;;
21168;SDS011;10742;51.816;8.662;2023-08-24T05:59:18;1999.90;;;996.23;;
21168;SDS011;10742;51.816;8.662;2023-08-24T06:02:21;1999.90;;;999.90;;
21168;SDS011;10742;51.816;8.662;2023-08-24T06:05:23;1999.90;;;999.90;;
21168;SDS011;10742;51.816;8.662;2023-08-24T06:08:27;1999.90;;;999.90;;
21168;SDS011;10742;51.816;8.662;2023-08-24T06:11:29;1999.90;;;999.90;;
21168;SDS011;10742;51.816;8.662;2023-08-24T06:14:32;1999.90;;;999.90;;
21168;SDS011;10742;51.816;8.662;2023-08-24T06:17:34;1999.90;;;999.90;;
21168;SDS011;10742;51.816;8.662;2023-08-24T06:20:37;1999.90;;;999.90;;
21168;SDS011;10742;51.816;8.662;2023-08-24T06:23:40;1999.90;;;999.90;;
21168;SDS011;10742;51.816;8.662;2023-08-24T06:26:42;1999.90;;;999.90;;
21168;SDS011;10742;51.816;8.662;2023-08-24T06:29:45;1999.90;;;999.90;;
21168;SDS011;10742;51.816;8.662;2023-08-24T06:32:47;1999.90;;;999.90;;
21168;SDS011;10742;51.816;8.662;2023-08-24T06:35:50;1999.90;;;999.90;;
21168;SDS011;10742;51.816;8.662;2023-08-24T06:38:52;1999.90;;;999.90;;
21168;SDS011;10742;51.816;8.662;2023-08-24T06:41:55;1999.90;;;999.90;;
21168;SDS011;10742;51.816;8.662;2023-08-24T06:45:00;1999.90;;;999.90;;
21168;SDS011;10742;51.816;8.662;2023-08-24T06:48:02;1999.90;;;999.90;;
21168;SDS011;10742;51.816;8.662;2023-08-24T06:51:05;1999.90;;;999.90;;
21168;SDS011;10742;51.816;8.662;2023-08-24T06:54:08;1999.90;;;999.90;;
21168;SDS011;10742;51.816;8.662;2023-08-24T06:57:10;1999.90;;;999.90;;
21168;SDS011;10742;51.816;8.662;2023-08-24T07:00:13;1999.90;;;999.90;;
21168;SDS011;10742;51.816;8.662;2023-08-24T07:03:17;1999.90;;;999.90;;
21168;SDS011;10742;51.816;8.662;2023-08-24T07:06:20;1999.90;;;999.90;;
21168;SDS011;10742;51.816;8.662;2023-08-24T07:09:22;1999.90;;;978.90;;
21168;SDS011;10742;51.816;8.662;2023-08-24T07:12:25;1999.90;;;999.90;;
21168;SDS011;10742;51.816;8.662;2023-08-24T07:15:28;1999.90;;;999.90;;
21168;SDS011;10742;51.816;8.662;2023-08-24T07:18:31;1999.90;;;999.90;;
21168;SDS011;10742;51.816;8.662;2023-08-24T07:21:33;1999.90;;;999.90;;
21168;SDS011;10742;51.816;8.662;2023-08-24T07:24:36;1999.90;;;999.90;;
21168;SDS011;10742;51.816;8.662;2023-08-24T07:27:45;1999.90;;;999.90;;
21168;SDS011;10742;51.816;8.662;2023-08-24T07:30:47;1999.90;;;999.90;;
21168;SDS011;10742;51.816;8.662;2023-08-24T07:33:50;1999.90;;;999.90;;
21168;SDS011;10742;51.816;8.662;2023-08-24T07:36:53;1999.90;;;999.90;;
21168;SDS011;10742;51.816;8.662;2023-08-24T07:39:55;1999.90;;;999.90;;
21168;SDS011;10742;51.816;8.662;2023-08-24T07:42:57;1999.90;;;999.90;;
21168;SDS011;10742;51.816;8.662;2023-08-24T07:46:01;1999.90;;;999.90;;
21168;SDS011;10742;51.816;8.662;2023-08-24T07:49:04;1999.90;;;999.90;;
21168;SDS011;10742;51.816;8.662;2023-08-24T07:52:07;1999.90;;;999.90;;
21168;SDS011;10742;51.816;8.662;2023-08-24T07:55:09;1999.90;;;999.90;;
21168;SDS011;10742;51.816;8.662;2023-08-24T07:58:12;1999.90;;;999.90;;
21168;SDS011;10742;51.816;8.662;2023-08-24T08:01:14;1999.90;;;999.90;;
21168;SDS011;10742;51.816;8.662;2023-08-24T08:04:17;1999.90;;;999.90;;
21168;SDS011;10742;51.816;8.662;2023-08-24T08:07:19;1999.90;;;999.90;;
21168;SDS011;10742;51.816;8.662;2023-08-24T08:10:22;1999.90;;;983.08;;
21168;SDS011;10742;51.816;8.662;2023-08-24T08:13:25;1999.90;;;693.08;;
21168;SDS011;10742;51.816;8.662;2023-08-24T08:16:28;1856.10;;;457.83;;
21168;SDS011;10742;51.816;8.662;2023-08-24T08:19:30;1026.78;;;295.20;;
21168;SDS011;10742;51.816;8.662;2023-08-24T08:22:33;856.33;;;249.30;;
21168;SDS011;10742;51.816;8.662;2023-08-24T08:25:40;318.45;;;108.22;;
21168;SDS011;10742;51.816;8.662;2023-08-24T08:28:44;177.07;;;64.78;;
21168;SDS011;10742;51.816;8.662;2023-08-24T08:31:46;34.30;;;19.65;;
21168;SDS011;10742;51.816;8.662;2023-08-24T08:34:49;16.02;;;11.13;;
21168;SDS011;10742;51.816;8.662;2023-08-24T08:37:52;16.77;;;9.23;;
21168;SDS011;10742;51.816;8.662;2023-08-24T08:40:56;10.32;;;7.72;;
21168;SDS011;10742;51.816;8.662;2023-08-24T08:44:04;11.00;;;5.88;;
21168;SDS011;10742;51.816;8.662;2023-08-24T08:47:09;6.68;;;4.78;;
21168;SDS011;10742;51.816;8.662;2023-08-24T08:50:13;10.88;;;4.82;;
21168;SDS011;10742;51.816;8.662;2023-08-24T08:53:15;9.55;;;4.35;;
21168;SDS011;10742;51.816;8.662;2023-08-24T08:56:19;7.88;;;3.60;;
21168;SDS011;10742;51.816;8.662;2023-08-24T08:59:22;7.07;;;3.65;;
21168;SDS011;10742;51.816;8.662;2023-08-24T09:02:25;8.20;;;3.80;;
21168;SDS011;10742;51.816;8.662;2023-08-24T09:05:31;7.07;;;3.70;;
21168;SDS011;10742;51.816;8.662;2023-08-24T09:08:34;7.68;;;3.70;;
21168;SDS011;10742;51.816;8.662;2023-08-24T09:11:37;6.68;;;3.80;;
21168;SDS011;10742;51.816;8.662;2023-08-24T09:14:41;7.38;;;3.42;;
21168;SDS011;10742;51.816;8.662;2023-08-24T09:17:44;6.53;;;3.20;;
21168;SDS011;10742;51.816;8.662;2023-08-24T09:20:47;6.32;;;3.17;;
21168;SDS011;10742;51.816;8.662;2023-08-24T09:23:53;7.95;;;2.78;;
21168;SDS011;10742;51.816;8.662;2023-08-24T09:26:59;5.45;;;3.17;;
21168;SDS011;10742;51.816;8.662;2023-08-24T09:30:16;6.78;;;3.05;;
21168;SDS011;10742;51.816;8.662;2023-08-24T09:33:19;6.10;;;3.10;;
21168;SDS011;10742;51.816;8.662;2023-08-24T09:36:23;6.28;;;3.33;;
21168;SDS011;10742;51.816;8.662;2023-08-24T09:39:26;10.10;;;3.22;;
21168;SDS011;10742;51.816;8.662;2023-08-24T09:42:28;6.70;;;3.13;;
21168;SDS011;10742;51.816;8.662;2023-08-24T09:45:31;5.60;;;2.85;;
21168;SDS011;10742;51.816;8.662;2023-08-24T09:48:34;4.07;;;2.78;;
21168;SDS011;10742;51.816;8.662;2023-08-24T09:51:38;6.45;;;2.97;;
21168;SDS011;10742;51.816;8.662;2023-08-24T09:54:41;5.00;;;3.05;;
21168;SDS011;10742;51.816;8.662;2023-08-24T09:57:46;9.13;;;2.80;;
21168;SDS011;10742;51.816;8.662;2023-08-24T10:00:50;4.68;;;3.20;;
21168;SDS011;10742;51.816;8.662;2023-08-24T10:03:53;6.68;;;2.90;;
21168;SDS011;10742;51.816;8.662;2023-08-24T10:06:59;6.95;;;2.90;;
21168;SDS011;10742;51.816;8.662;2023-08-24T10:10:13;6.78;;;2.60;;
21168;SDS011;10742;51.816;8.662;2023-08-24T10:13:31;4.10;;;2.80;;
21168;SDS011;10742;51.816;8.662;2023-08-24T10:17:04;4.38;;;2.60;;
21168;SDS011;10742;51.816;8.662;2023-08-24T10:20:09;8.68;;;2.53;;
21168;SDS011;10742;51.816;8.662;2023-08-24T10:23:13;7.30;;;2.40;;
21168;SDS011;10742;51.816;8.662;2023-08-24T10:26:17;6.60;;;2.85;;
21168;SDS011;10742;51.816;8.662;2023-08-24T10:29:21;5.03;;;2.60;;
21168;SDS011;10742;51.816;8.662;2023-08-24T10:32:25;4.78;;;2.67;;
21168;SDS011;10742;51.816;8.662;2023-08-24T10:35:29;6.10;;;2.63;;
21168;SDS011;10742;51.816;8.662;2023-08-24T10:38:34;7.13;;;2.50;;
21168;SDS011;10742;51.816;8.662;2023-08-24T10:41:50;5.72;;;2.47;;
21168;SDS011;10742;51.816;8.662;2023-08-24T10:44:54;5.43;;;2.83;;
21168;SDS011;10742;51.816;8.662;2023-08-24T10:47:57;4.70;;;2.40;;
21168;SDS011;10742;51.816;8.662;2023-08-24T10:51:15;3.00;;;2.42;;
21168;SDS011;10742;51.816;8.662;2023-08-24T10:54:29;4.72;;;2.65;;
21168;SDS011;10742;51.816;8.662;2023-08-24T10:57:38;5.40;;;2.72;;
21168;SDS011;10742;51.816;8.662;2023-08-24T11:00:43;6.93;;;2.67;;
21168;SDS011;10742;51.816;8.662;2023-08-24T11:03:54;8.93;;;2.95;;
21168;SDS011;10742;51.816;8.662;2023-08-24T11:06:58;6.95;;;2.70;;
21168;SDS011;10742;51.816;8.662;2023-08-24T11:10:13;8.68;;;2.80;;
21168;SDS011;10742;51.816;8.662;2023-08-24T11:13:18;6.47;;;2.85;;
21168;SDS011;10742;51.816;8.662;2023-08-24T11:19:50;6.80;;;2.60;;
21168;SDS011;10742;51.816;8.662;2023-08-24T11:22:55;7.88;;;2.80;;
21168;SDS011;10742;51.816;8.662;2023-08-24T11:25:58;4.78;;;2.53;;
21168;SDS011;10742;51.816;8.662;2023-08-24T11:29:05;6.05;;;2.60;;
21168;SDS011;10742;51.816;8.662;2023-08-24T11:32:08;3.58;;;2.58;;
21168;SDS011;10742;51.816;8.662;2023-08-24T11:35:13;9.73;;;3.05;;
21168;SDS011;10742;51.816;8.662;2023-08-24T11:38:16;6.28;;;3.00;;
21168;SDS011;10742;51.816;8.662;2023-08-24T11:41:19;12.43;;;3.00;;
21168;SDS011;10742;51.816;8.662;2023-08-24T11:44:25;5.22;;;2.70;;
21168;SDS011;10742;51.816;8.662;2023-08-24T11:47:29;5.80;;;2.55;;
21168;SDS011;10742;51.816;8.662;2023-08-24T11:50:32;6.80;;;3.17;;
21168;SDS011;10742;51.816;8.662;2023-08-24T11:53:39;4.97;;;2.72;;
21168;SDS011;10742;51.816;8.662;2023-08-24T11:56:42;6.18;;;2.83;;
21168;SDS011;10742;51.816;8.662;2023-08-24T11:59:45;5.45;;;2.53;;
21168;SDS011;10742;51.816;8.662;2023-08-24T12:02:48;5.47;;;2.72;;
21168;SDS011;10742;51.816;8.662;2023-08-24T12:05:51;6.78;;;2.85;;
21168;SDS011;10742;51.816;8.662;2023-08-24T12:08:54;4.53;;;2.58;;
21168;SDS011;10742;51.816;8.662;2023-08-24T12:11:57;8.30;;;2.80;;
21168;SDS011;10742;51.816;8.662;2023-08-24T12:15:00;6.50;;;2.90;;
21168;SDS011;10742;51.816;8.662;2023-08-24T12:18:13;5.03;;;2.63;;
21168;SDS011;10742;51.816;8.662;2023-08-24T12:21:16;6.75;;;2.42;;
21168;SDS011;10742;51.816;8.662;2023-08-24T12:24:19;6.28;;;2.65;;
21168;SDS011;10742;51.816;8.662;2023-08-24T12:27:23;6.32;;;2.40;;
21168;SDS011;10742;51.816;8.662;2023-08-24T12:30:26;5.05;;;2.75;;
21168;SDS011;10742;51.816;8.662;2023-08-24T12:33:29;4.03;;;2.13;;
21168;SDS011;10742;51.816;8.662;2023-08-24T12:36:38;4.35;;;2.22;;
21168;SDS011;10742;51.816;8.662;2023-08-24T12:39:41;4.20;;;2.47;;
21168;SDS011;10742;51.816;8.662;2023-08-24T12:42:44;3.97;;;2.30;;
21168;SDS011;10742;51.816;8.662;2023-08-24T12:45:46;6.60;;;2.78;;
21168;SDS011;10742;51.816;8.662;2023-08-24T12:48:49;6.88;;;3.13;;
21168;SDS011;10742;51.816;8.662;2023-08-24T12:51:52;5.63;;;2.53;;
21168;SDS011;10742;51.816;8.662;2023-08-24T12:54:55;7.97;;;2.47;;
21168;SDS011;10742;51.816;8.662;2023-08-24T12:57:57;7.00;;;2.80;;
21168;SDS011;10742;51.816;8.662;2023-08-24T13:01:00;7.40;;;2.70;;
21168;SDS011;10742;51.816;8.662;2023-08-24T13:04:03;7.10;;;2.83;;
21168;SDS011;10742;51.816;8.662;2023-08-24T13:07:07;5.00;;;2.60;;
21168;SDS011;10742;51.816;8.662;2023-08-24T13:10:10;5.93;;;3.03;;
21168;SDS011;10742;51.816;8.662;2023-08-24T13:13:13;8.50;;;2.90;;
21168;SDS011;10742;51.816;8.662;2023-08-24T13:16:16;5.00;;;2.58;;
21168;SDS011;10742;51.816;8.662;2023-08-24T13:19:18;3.45;;;2.53;;
21168;SDS011;10742;51.816;8.662;2023-08-24T13:22:21;5.50;;;2.83;;
21168;SDS011;10742;51.816;8.662;2023-08-24T13:25:23;5.90;;;2.70;;
21168;SDS011;10742;51.816;8.662;2023-08-24T13:28:26;4.50;;;2.97;;
21168;SDS011;10742;51.816;8.662;2023-08-24T13:31:29;4.25;;;2.78;;
21168;SDS011;10742;51.816;8.662;2023-08-24T13:34:32;4.57;;;2.90;;
21168;SDS011;10742;51.816;8.662;2023-08-24T13:37:35;5.80;;;2.80;;
21168;SDS011;10742;51.816;8.662;2023-08-24T13:40:37;6.03;;;3.10;;
21168;SDS011;10742;51.816;8.662;2023-08-24T13:43:40;7.53;;;3.10;;
21168;SDS011;10742;51.816;8.662;2023-08-24T13:46:43;5.45;;;2.97;;
21168;SDS011;10742;51.816;8.662;2023-08-24T13:49:46;8.18;;;2.95;;
21168;SDS011;10742;51.816;8.662;2023-08-24T13:52:49;7.25;;;3.15;;
21168;SDS011;10742;51.816;8.662;2023-08-24T13:55:52;5.53;;;2.92;;
21168;SDS011;10742;51.816;8.662;2023-08-24T13:58:54;5.80;;;2.75;;
21168;SDS011;10742;51.816;8.662;2023-08-24T14:01:57;11.95;;;3.10;;
21168;SDS011;10742;51.816;8.662;2023-08-24T14:04:59;5.78;;;3.05;;
21168;SDS011;10742;51.816;8.662;2023-08-24T14:08:02;5.68;;;3.13;;
21168;SDS011;10742;51.816;8.662;2023-08-24T14:11:05;6.63;;;2.83;;
21168;SDS011;10742;51.816;8.662;2023-08-24T14:14:07;7.65;;;3.10;;
21168;SDS011;10742;51.816;8.662;2023-08-24T14:17:10;6.22;;;2.88;;
21168;SDS011;10742;51.816;8.662;2023-08-24T14:20:13;5.18;;;3.05;;
21168;SDS011;10742;51.816;8.662;2023-08-24T14:23:16;8.73;;;3.67;;
21168;SDS011;10742;51.816;8.662;2023-08-24T14:26:18;8.35;;;2.90;;
21168;SDS011;10742;51.816;8.662;2023-08-24T14:29:21;5.68;;;2.90;;
21168;SDS011;10742;51.816;8.662;2023-08-24T14:32:24;7.15;;;2.75;;
21168;SDS011;10742;51.816;8.662;2023-08-24T14:35:26;10.07;;;2.70;;
21168;SDS011;10742;51.816;8.662;2023-08-24T14:38:29;7.70;;;2.80;;
21168;SDS011;10742;51.816;8.662;2023-08-24T14:41:31;5.57;;;2.60;;
21168;SDS011;10742;51.816;8.662;2023-08-24T14:44:34;6.72;;;2.90;;
21168;SDS011;10742;51.816;8.662;2023-08-24T14:47:37;3.67;;;2.45;;
21168;SDS011;10742;51.816;8.662;2023-08-24T14:50:41;4.68;;;2.50;;
21168;SDS011;10742;51.816;8.662;2023-08-24T14:53:44;6.60;;;2.53;;
21168;SDS011;10742;51.816;8.662;2023-08-24T14:56:46;7.15;;;2.60;;
21168;SDS011;10742;51.816;8.662;2023-08-24T14:59:49;6.45;;;2.60;;
21168;SDS011;10742;51.816;8.662;2023-08-24T15:02:51;5.55;;;2.47;;
21168;SDS011;10742;51.816;8.662;2023-08-24T15:05:58;8.77;;;2.88;;
21168;SDS011;10742;51.816;8.662;2023-08-24T15:09:03;8.05;;;2.83;;
21168;SDS011;10742;51.816;8.662;2023-08-24T15:12:06;3.92;;;2.78;;
21168;SDS011;10742;51.816;8.662;2023-08-24T15:15:08;6.10;;;2.83;;
21168;SDS011;10742;51.816;8.662;2023-08-24T15:18:12;6.63;;;3.00;;
21168;SDS011;10742;51.816;8.662;2023-08-24T15:21:15;11.43;;;2.72;;
21168;SDS011;10742;51.816;8.662;2023-08-24T15:24:18;4.57;;;2.50;;
21168;SDS011;10742;51.816;8.662;2023-08-24T15:27:21;8.88;;;3.33;;
21168;SDS011;10742;51.816;8.662;2023-08-24T15:30:24;7.15;;;2.70;;
21168;SDS011;10742;51.816;8.662;2023-08-24T15:33:26;10.27;;;2.80;;
21168;SDS011;10742;51.816;8.662;2023-08-24T15:36:29;4.53;;;2.85;;
21168;SDS011;10742;51.816;8.662;2023-08-24T15:39:36;6.07;;;2.75;;
21168;SDS011;10742;51.816;8.662;2023-08-24T15:42:39;7.57;;;2.83;;
21168;SDS011;10742;51.816;8.662;2023-08-24T15:45:42;10.38;;;3.25;;
21168;SDS011;10742;51.816;8.662;2023-08-24T15:48:45;6.75;;;3.00;;
21168;SDS011;10742;51.816;8.662;2023-08-24T15:51:48;6.15;;;2.80;;
21168;SDS011;10742;51.816;8.662;2023-08-24T15:54:51;5.93;;;2.80;;
21168;SDS011;10742;51.816;8.662;2023-08-24T15:57:54;10.15;;;3.08;;
21168;SDS011;10742;51.816;8.662;2023-08-24T16:00:56;7.45;;;2.90;;
21168;SDS011;10742;51.816;8.662;2023-08-24T16:03:59;10.77;;;3.53;;
21168;SDS011;10742;51.816;8.662;2023-08-24T16:07:20;4.13;;;2.95;;
21168;SDS011;10742;51.816;8.662;2023-08-24T16:10:42;5.75;;;2.95;;
21168;SDS011;10742;51.816;8.662;2023-08-24T16:14:05;9.45;;;3.28;;
21168;SDS011;10742;51.816;8.662;2023-08-24T16:17:26;6.10;;;2.83;;
21168;SDS011;10742;51.816;8.662;2023-08-24T16:20:47;10.32;;;3.30;;
21168;SDS011;10742;51.816;8.662;2023-08-24T16:24:08;8.65;;;3.15;;
21168;SDS011;10742;51.816;8.662;2023-08-24T16:27:30;7.22;;;3.28;;
21168;SDS011;10742;51.816;8.662;2023-08-24T16:30:33;5.32;;;3.08;;
21168;SDS011;10742;51.816;8.662;2023-08-24T16:33:38;7.80;;;3.05;;
21168;SDS011;10742;51.816;8.662;2023-08-24T16:36:42;5.70;;;2.90;;
21168;SDS011;10742;51.816;8.662;2023-08-24T16:39:45;11.15;;;3.20;;
21168;SDS011;10742;51.816;8.662;2023-08-24T16:42:47;15.30;;;3.25;;
21168;SDS011;10742;51.816;8.662;2023-08-24T16:45:50;13.35;;;3.30;;
21168;SDS011;10742;51.816;8.662;2023-08-24T16:48:53;9.27;;;3.22;;
21168;SDS011;10742;51.816;8.662;2023-08-24T16:51:55;9.40;;;3.00;;
21168;SDS011;10742;51.816;8.662;2023-08-24T16:54:58;11.30;;;3.15;;
21168;SDS011;10742;51.816;8.662;2023-08-24T16:58:01;6.80;;;3.10;;
21168;SDS011;10742;51.816;8.662;2023-08-24T17:01:07;10.50;;;2.83;;
21168;SDS011;10742;51.816;8.662;2023-08-24T17:04:11;9.73;;;2.95;;
21168;SDS011;10742;51.816;8.662;2023-08-24T17:07:14;11.52;;;3.13;;
21168;SDS011;10742;51.816;8.662;2023-08-24T17:10:16;8.13;;;2.97;;
21168;SDS011;10742;51.816;8.662;2023-08-24T17:13:19;4.55;;;2.67;;
21168;SDS011;10742;51.816;8.662;2023-08-24T17:16:22;7.10;;;2.72;;
21168;SDS011;10742;51.816;8.662;2023-08-24T17:19:24;12.30;;;2.90;;
21168;SDS011;10742;51.816;8.662;2023-08-24T17:22:27;6.25;;;2.50;;
21168;SDS011;10742;51.816;8.662;2023-08-24T17:25:29;6.45;;;2.97;;
21168;SDS011;10742;51.816;8.662;2023-08-24T17:28:32;6.30;;;2.92;;
21168;SDS011;10742;51.816;8.662;2023-08-24T17:31:35;8.80;;;2.92;;
21168;SDS011;10742;51.816;8.662;2023-08-24T17:34:37;10.35;;;3.10;;
21168;SDS011;10742;51.816;8.662;2023-08-24T17:37:40;7.30;;;3.05;;
21168;SDS011;10742;51.816;8.662;2023-08-24T17:40:43;6.50;;;2.80;;
21168;SDS011;10742;51.816;8.662;2023-08-24T17:43:46;8.30;;;2.95;;
21168;SDS011;10742;51.816;8.662;2023-08-24T17:46:49;10.57;;;3.08;;
21168;SDS011;10742;51.816;8.662;2023-08-24T17:49:52;10.20;;;3.05;;
21168;SDS011;10742;51.816;8.662;2023-08-24T17:52:54;7.30;;;3.05;;
21168;SDS011;10742;51.816;8.662;2023-08-24T17:55:58;5.15;;;2.75;;